Latest Weather Observations for Giles*

IDW60801

Issued at 4:05 am WST Tuesday 23 September 2014 (issued every 30 minutes, with the page automatically refreshed every 10 minutes)

About weather observations | Map of weather stations | Latest weather observations for WA | Other Formats
Station Details ID: 013017 Name: GILES METEOROLOGICAL OFFICE Lat: -25.03 Lon: 128.30 Height: 598.0 m
Data from the previous 72 hours. | See also: Recent months at Giles*

* Giles observations are collected in the South Australia time zone, which includes daylight saving in the summer period. Therefore, Rain since 9am value is with respect to South Australia local time.

Date/Time
WST
Temp
°C
App
Temp
°C
Dew
Point
Rel
Hum
%
Delta-T
°C
Wind Press
QNH
hPa
Press
MSL
hPa
Rain
since 9 am
mm
Dir
 
Spd
km/h
Gust
km/h
Spd
kts
Gust
kts
23/04:00am 12.3 8.1 1.4 47 4.8 SSW 13 17 7 9 1016.5 - 0.0
23/03:30am 13.3 7.9 1.3 44 5.3 SW 19 24 10 13 1016.4 - 0.0
23/03:00am 13.6 8.5 0.5 40 5.7 SW 17 24 9 13 1016.4 - 0.0
23/02:30am 14.4 8.6 -0.1 37 6.3 SW 20 32 11 17 1016.0 - 0.0
23/02:00am 15.4 10.3 3.3 44 5.7 SW 19 28 10 15 1016.3 - 0.0
23/01:30am 16.0 10.3 3.0 41 6.1 SW 22 30 12 16 1016.1 1013.7 0.0
23/01:00am 16.7 10.2 2.6 38 6.6 SSW 26 39 14 21 1016.2 - 0.0
23/12:30am 17.2 10.7 2.8 38 6.8 SW 26 39 14 21 1016.1 - 0.0
23/12:00am 17.4 12.0 2.5 37 7.0 SSW 20 28 11 15 1016.0 - 0.0
 
Date/Time
WST
Temp
°C
App
Temp
°C
Dew
Point
Rel
Hum
%
Delta-T
°C
Wind Press
QNH
hPa
Press
MSL
hPa
Rain
since 9 am
mm
Dir
 
Spd
km/h
Gust
km/h
Spd
kts
Gust
kts
22/11:30pm 17.5 10.6 2.4 36 7.1 SSW 28 43 15 23 1016.0 - 0.0
22/11:00pm 18.0 11.0 4.0 39 6.8 SSW 30 44 16 24 1015.9 - 0.0
22/10:40pm 18.4 11.9 4.6 40 6.8 SSW 28 46 15 25 1015.4 - 0.0
22/10:30pm 18.7 12.8 4.0 37 7.2 SSW 24 39 13 21 1015.4 1013.1 0.0
22/10:00pm 18.9 13.2 4.8 39 7.0 SSW 24 35 13 19 1015.4 - 0.0
22/09:30pm 19.7 13.2 6.6 42 6.8 SSW 30 43 16 23 1015.1 - 0.0
22/09:11pm 21.0 14.7 7.2 41 7.3 SSW 30 48 16 26 1014.3 - 0.0
22/09:00pm 23.1 16.2 4.4 29 9.5 WSW 30 43 16 23 1014.3 - 0.0
22/08:59pm 23.2 15.9 4.6 30 9.5 WSW 32 44 17 24 1014.1 - 0.0
22/08:36pm 26.3 17.4 -12.2 7 14.8 N 30 48 16 26 1012.1 - 0.0
22/08:30pm 26.3 17.0 -12.2 7 14.8 NNE 32 43 17 23 1011.8 - 0.0
22/08:00pm 26.4 17.0 -11.7 7 14.8 NNE 33 44 18 24 1011.6 - 0.0
22/07:30pm 26.5 17.6 -12.1 7 14.9 NNE 30 43 16 23 1011.7 1009.3 0.0
22/07:00pm 26.9 18.3 -12.9 6 15.2 NNE 28 41 15 22 1011.9 - 0.0
22/06:30pm 27.1 18.2 -11.9 7 15.2 NNE 30 43 16 23 1012.1 - 0.0
22/06:00pm 27.2 18.7 -12.3 6 15.3 N 28 37 15 20 1012.2 - 0.0
22/05:30pm 27.7 19.1 -12.6 6 15.6 N 28 39 15 21 1012.2 - 0.0
22/05:00pm 28.5 19.5 -13.1 6 16.1 N 30 41 16 22 1012.1 - 0.0
22/04:30pm 29.2 19.6 -14.2 5 16.6 N 33 43 18 23 1011.9 1009.6 0.0
22/04:14pm 29.5 20.4 -15.6 4 16.9 N 30 48 16 26 1011.8 - 0.0
22/04:00pm 29.8 20.2 -14.9 5 17.0 N 33 48 18 26 1011.9 - 0.0
22/03:30pm 30.3 20.9 -14.1 5 17.2 N 32 44 17 24 1012.4 - 0.0
22/03:00pm 30.7 21.2 -16.0 4 17.6 N 32 50 17 27 1012.4 - 0.0
22/02:30pm 30.3 20.6 -16.3 4 17.4 N 33 52 18 28 1012.4 - 0.0
22/02:09pm 30.0 19.9 -15.9 4 17.2 N 35 54 19 29 1012.5 - 0.0
22/02:00pm 30.1 20.0 -16.5 4 17.3 N 35 46 19 25 1012.7 - 0.0
22/01:34pm 30.3 21.5 -17.7 3 17.5 N 28 48 15 26 1013.4 - 0.0
22/01:30pm 30.1 21.8 -15.4 4 17.2 N 26 37 14 20 1013.5 1011.2 0.0
22/01:00pm 30.0 19.9 -16.1 4 17.2 N 35 54 19 29 1014.1 - 0.0
22/12:49pm 29.4 19.7 -16.5 4 16.9 N 33 54 18 29 1014.1 - 0.0
22/12:30pm 29.3 18.8 -17.1 4 16.9 N 37 50 20 27 1014.1 - 0.0
22/12:00pm 28.3 18.8 -16.5 4 16.3 N 32 43 17 23 1014.2 - 0.0
22/11:45am 27.8 18.7 -16.2 5 16.0 N 30 48 16 26 1014.5 - 0.0
22/11:30am 27.4 18.7 -15.3 5 15.7 NNE 28 44 15 24 1014.9 - 0.0
22/11:00am 26.3 18.4 -15.2 5 15.1 NNE 24 39 13 21 1015.5 - 0.0
22/10:30am 25.3 16.6 -14.6 6 14.5 N 28 41 15 22 1016.3 1013.9 0.0
22/10:00am 24.5 14.8 -15.9 6 14.2 NNE 33 52 18 28 1016.9 - 0.0
22/09:30am 24.2 14.7 -16.5 6 14.1 NNE 32 50 17 27 1017.4 - 0.0
22/09:02am 22.9 14.2 -16.2 6 13.4 NNE 28 48 15 26 1017.9 - 0.0
22/09:00am 23.6 14.9 -15.6 6 13.7 NNE 28 44 15 24 1017.9 - 0.0
22/08:30am 22.7 14.8 -15.2 7 13.2 NNE 24 39 13 21 1017.9 - 0.0
22/08:00am 21.8 13.8 -15.7 7 12.8 NE 24 39 13 21 1018.1 - 0.0
22/07:30am 21.4 13.2 -13.8 8 12.4 NE 26 43 14 23 1018.1 1015.8 0.0
22/07:00am 20.9 13.5 -12.6 9 12.0 NE 22 39 12 21 1018.2 - 0.0
22/06:30am 20.2 12.7 -13.8 9 11.8 ENE 22 41 12 22 1018.1 - 0.0
22/06:00am 19.6 12.1 -14.6 9 11.6 ENE 22 39 12 21 1018.1 - 0.0
22/05:30am 19.4 11.5 -14.6 9 11.5 NE 24 41 13 22 1017.8 - 0.0
22/05:00am 19.4 10.7 -14.6 9 11.5 NE 28 46 15 25 1017.8 - 0.0
22/04:52am 19.5 10.8 -15.0 8 11.6 NE 28 46 15 25 1017.7 - 0.0
22/04:30am 19.4 11.9 -13.7 9 11.4 ENE 22 35 12 19 1017.8 1015.4 0.0
22/04:00am 19.0 12.5 -13.7 10 11.2 ENE 17 30 9 16 1017.7 - 0.0
22/03:30am 18.4 11.9 -13.6 10 10.9 E 17 33 9 18 1017.7 - 0.0
22/03:00am 18.4 11.9 -13.6 10 10.9 E 17 28 9 15 1017.7 - 0.0
22/02:30am 19.3 10.9 -16.0 8 11.6 ENE 26 41 14 22 1017.5 - 0.0
22/02:00am 19.3 11.4 -14.1 9 11.4 ENE 24 37 13 20 1017.8 - 0.0
22/01:30am 19.0 10.8 -13.7 10 11.2 E 26 35 14 19 1018.0 1015.7 0.0
22/01:00am 19.5 11.7 -13.3 10 11.4 ENE 24 37 13 20 1018.4 - 0.0
22/12:30am 19.2 12.9 -10.0 13 10.8 E 17 24 9 13 1018.9 - 0.0
22/12:00am 19.4 13.2 -8.8 14 10.7 E 17 24 9 13 1019.2 - 0.0
 
Date/Time
WST
Temp
°C
App
Temp
°C
Dew
Point
Rel
Hum
%
Delta-T
°C
Wind Press
QNH
hPa
Press
MSL
hPa
Rain
since 9 am
mm
Dir
 
Spd
km/h
Gust
km/h
Spd
kts
Gust
kts
21/11:30pm 20.0 13.9 -8.2 14 10.9 E 17 24 9 13 1019.4 - 0.0
21/11:00pm 20.3 13.8 -7.9 14 11.0 E 19 24 10 13 1019.8 - 0.0
21/10:30pm 21.0 13.5 -8.2 13 11.4 E 24 35 13 19 1019.9 1017.6 0.0
21/10:00pm 21.0 13.9 -8.2 13 11.4 E 22 32 12 17 1020.0 - 0.0
21/09:30pm 21.1 14.5 -7.3 14 11.3 E 20 30 11 16 1020.0 - 0.0
21/09:00pm 21.5 14.5 -7.2 14 11.5 E 22 28 12 15 1020.0 - 0.0
21/08:30pm 21.8 15.3 -6.4 14 11.5 E 20 30 11 16 1019.9 - 0.0
21/08:00pm 22.6 16.1 -6.3 14 11.9 E 20 28 11 15 1019.9 - 0.0
21/07:30pm 23.0 16.7 -6.2 14 12.1 E 19 26 10 14 1019.7 1017.4 0.0
21/07:00pm 23.6 17.7 -6.1 13 12.4 E 17 24 9 13 1019.5 - 0.0
21/06:30pm 23.6 18.5 -5.0 14 12.2 E 13 17 7 9 1019.2 - 0.0
21/06:00pm 25.0 20.0 -4.7 13 12.9 ENE 13 17 7 9 1018.8 - 0.0
21/05:30pm 26.5 21.0 -5.1 12 13.8 NE 15 20 8 11 1018.5 - 0.0
21/05:00pm 27.3 21.4 -5.4 11 14.3 ENE 17 24 9 13 1018.1 - 0.0
21/04:30pm 28.0 22.1 -5.4 11 14.7 NE 17 26 9 14 1018.1 1015.8 0.0
21/04:00pm 28.8 23.2 -6.3 9 15.3 NE 15 24 8 13 1018.0 - 0.0
21/03:30pm 29.0 23.5 -5.6 10 15.3 NE 15 26 8 14 1018.0 - 0.0
21/03:00pm 29.4 23.0 -7.3 8 15.8 ENE 19 26 10 14 1018.2 - 0.0
21/02:30pm 29.2 22.7 -8.1 8 15.8 E 19 30 10 16 1018.4 - 0.0
21/02:00pm 28.9 23.3 -6.6 9 15.4 E 15 20 8 11 1018.6 - 0.0
21/01:30pm 28.8 22.2 -6.9 9 15.4 E 20 32 11 17 1018.8 1016.5 0.0
21/01:00pm 28.2 21.6 -7.2 9 15.1 ENE 20 30 11 16 1019.2 - 0.0
21/12:30pm 28.2 23.3 -3.8 12 14.5 NE 13 19 7 10 1019.9 - 0.0
21/12:00pm 28.4 22.0 -4.8 11 14.8 ENE 20 33 11 18 1020.3 - 0.0
21/11:30am 27.3 20.3 -3.9 12 14.0 ENE 24 39 13 21 1020.8 - 0.0
21/11:00am 26.8 20.1 -1.0 16 13.1 ENE 24 37 13 20 1021.3 - 0.0
21/10:30am 25.8 18.4 -0.9 17 12.5 E 28 37 15 20 1022.0 1019.7 0.0
21/10:00am 25.2 17.4 -0.7 18 12.1 NE 30 41 16 22 1022.4 - 0.0
21/09:30am 24.3 17.1 0.9 21 11.2 ENE 28 35 15 19 1022.6 - 0.0
21/09:00am 24.3 17.1 0.9 21 11.2 ENE 28 39 15 21 1023.1 - 0.0
21/08:30am 22.9 17.0 1.7 24 10.2 ENE 22 33 12 18 1023.3 - 0.0
21/08:00am 21.8 15.2 2.0 27 9.5 E 26 32 14 17 1023.2 - 0.0
21/07:30am 20.5 13.6 2.3 30 8.7 E 28 37 15 20 1023.0 1020.7 0.0
21/07:00am 19.3 12.4 2.5 32 8.0 E 28 41 15 22 1022.6 - 0.0
21/06:30am 18.1 12.5 1.4 32 7.7 E 20 33 11 18 1022.4 - 0.0
21/06:00am 16.9 10.7 -0.4 31 7.6 E 22 28 12 15 1021.9 - 0.0
21/05:30am 16.3 10.4 -0.7 31 7.4 E 20 28 11 15 1021.4 - 0.0
21/05:00am 16.9 10.3 -0.7 30 7.7 E 24 32 13 17 1021.1 - 0.0
21/04:30am 17.0 10.3 -0.9 29 7.8 E 24 32 13 17 1020.6 1018.3 0.0
21/04:00am 17.3 10.9 -1.8 27 8.2 E 22 28 12 15 1020.4 - 0.0
21/03:30am 17.9 11.0 -2.6 24 8.7 E 24 33 13 18 1020.1 - 0.0
21/03:00am 18.2 12.0 -3.2 23 9.0 E 20 32 11 17 1019.9 - 0.0
21/02:30am 18.5 12.4 -3.9 21 9.3 ENE 19 26 10 14 1019.8 - 0.0
21/02:00am 17.4 11.7 -7.0 18 9.4 E 15 20 8 11 1019.8 - 0.0
21/01:30am 16.1 9.8 -10.0 15 9.3 E 17 20 9 11 1019.7 1017.4 0.0
21/01:00am 16.3 9.5 -12.1 13 9.7 ESE 19 22 10 12 1019.9 - 0.0
21/12:30am 16.8 10.3 -13.3 11 10.1 ESE 17 20 9 11 1020.0 - 0.0
21/12:00am 16.6 10.1 -13.3 12 10.0 ESE 17 20 9 11 1020.2 - 0.0
 
Date/Time
WST
Temp
°C
App
Temp
°C
Dew
Point
Rel
Hum
%
Delta-T
°C
Wind Press
QNH
hPa
Press
MSL
hPa
Rain
since 9 am
mm
Dir
 
Spd
km/h
Gust
km/h
Spd
kts
Gust
kts
20/11:30pm 17.8 10.9 -14.4 10 10.7 ESE 19 20 10 11 1020.4 - 0.0
20/11:00pm 19.0 12.4 -14.7 9 11.3 ESE 17 20 9 11 1020.7 - 0.0
20/10:30pm 18.8 13.2 -10.7 12 10.7 E 13 17 7 9 1021.1 1018.8 0.0
20/10:00pm 19.2 13.1 -12.2 11 11.1 E 15 17 8 9 1021.1 - 0.0
20/09:30pm 19.3 13.7 -11.1 12 11.0 E 13 13 7 7 1020.8 - 0.0
20/09:00pm 20.0 14.4 -11.5 11 11.4 E 13 15 7 8 1020.6 - 0.0
20/08:30pm 20.9 15.2 -12.7 9 12.0 ESE 13 17 7 9 1020.3 - 0.0
20/08:00pm 21.1 15.1 -11.9 10 12.0 SE 15 17 8 9 1019.9 - 0.0
20/07:30pm 21.9 16.2 -12.6 9 12.5 E 13 15 7 8 1019.8 1017.5 0.0
20/07:00pm 22.4 16.7 -12.2 9 12.7 SSE 13 15 7 8 1019.4 - 0.0
20/06:30pm 23.7 18.0 -13.2 7 13.5 SE 13 15 7 8 1018.9 - 0.0
20/06:00pm 25.0 19.3 -13.4 7 14.2 SSE 13 15 7 8 1018.5 - 0.0
20/05:30pm 27.1 20.8 -17.4 4 15.7 SSE 15 19 8 10 1018.3 - 0.0
20/05:00pm 29.7 22.1 -25.9 2 17.6 SSE 20 26 11 14 1017.9 - 0.0
20/04:30pm 30.7 23.2 -34.8 1 18.4 S 19 28 10 15 1017.8 1015.4 0.0
20/04:00pm 31.3 23.2 -33.2 1 18.7 S 22 30 12 16 1017.6 - 0.0
20/03:30pm 31.9 23.2 -25.4 2 18.8 S 26 35 14 19 1017.2 - 0.0
20/03:00pm 32.3 25.3 -16.4 3 18.5 SSE 19 24 10 13 1017.0 - 0.0
20/02:30pm 32.5 24.6 -14.0 4 18.4 S 24 43 13 23 1016.9 - 0.0
20/02:00pm 31.7 24.5 -10.0 6 17.5 S 22 37 12 20 1017.2 - 0.0
20/01:30pm 32.6 25.4 -9.9 6 18.0 SSE 22 35 12 19 1017.4 1015.0 0.0
20/01:00pm 31.9 26.7 -6.4 8 17.1 S 13 24 7 13 1017.7 - 0.0
20/12:30pm 31.9 24.2 -6.4 8 17.1 SSE 26 39 14 21 1018.1 - 0.0
20/12:00pm 31.6 25.3 -5.7 8 16.8 SSE 19 37 10 20 1018.5 - 0.0
20/11:30am 31.0 23.8 -5.4 9 16.4 S 24 30 13 16 1019.0 - 0.0
20/11:00am 31.1 24.3 -5.1 9 16.4 SSE 22 35 12 19 1019.4 - 0.0
20/10:30am 30.4 24.1 -4.0 10 15.8 SSE 20 32 11 17 1019.6 1017.3 0.0
20/10:00am 30.0 22.6 -3.7 11 15.5 SE 26 37 14 20 1020.0 - 0.0
20/09:30am 28.6 20.8 -4.2 11 14.8 SSE 28 33 15 18 1020.2 - 0.0
20/09:00am 27.6 20.7 -5.7 11 14.5 ESE 22 30 12 16 1020.4 - 0.0
20/08:30am 26.3 19.0 -6.3 11 13.9 ESE 24 33 13 18 1020.4 - 0.0
20/08:00am 24.4 17.8 -3.0 16 12.2 ESE 22 30 12 16 1020.6 - 0.0
20/07:30am 22.7 16.2 -2.6 18 11.2 ESE 22 30 12 16 1020.5 1018.2 0.0
20/07:00am 20.6 15.2 -1.0 23 9.7 ESE 17 24 9 13 1020.1 - 0.0
20/06:30am 18.6 13.4 -0.1 28 8.4 SSE 17 22 9 12 1019.8 - 0.0
20/06:00am 17.4 12.1 -0.5 29 7.9 SE 17 20 9 11 1019.3 - 0.0
20/05:30am 16.3 11.4 -0.4 32 7.3 ESE 15 19 8 10 1019.0 - 0.0
20/05:00am 16.2 11.7 -0.2 32 7.2 E 13 15 7 8 1018.7 - 0.0
20/04:30am 16.7 11.8 -0.7 30 7.6 ESE 15 17 8 9 1018.2 1015.9 0.0
20/04:00am 17.0 12.5 -0.5 30 7.7 ESE 13 17 7 9 1018.0 - 0.0
20/03:30am 17.4 12.9 -0.5 29 7.9 E 13 17 7 9 1017.6 - 0.0
20/03:00am 18.6 13.7 -0.8 27 8.6 SE 15 20 8 11 1017.2 - 0.0

Other Formats:

Comma delimited format used in spreadsheet applications
http://www.bom.gov.au/fwo/IDW60801/IDW60801.94461.axf

JavaScript Object Notation format (JSON) in row-major order
http://www.bom.gov.au/fwo/IDW60801/IDW60801.94461.json